sensor_id;sensor_type;location;lat;lon;timestamp;temperature;humidity
13928;DHT22;7036;50.834;4.718;2023-05-23T00:02:04;21.50;63.70
13928;DHT22;7036;50.834;4.718;2023-05-23T00:04:31;21.50;63.60
13928;DHT22;7036;50.834;4.718;2023-05-23T00:07:00;21.50;63.60
13928;DHT22;7036;50.834;4.718;2023-05-23T00:09:28;21.50;63.60
13928;DHT22;7036;50.834;4.718;2023-05-23T00:11:55;21.50;63.50
13928;DHT22;7036;50.834;4.718;2023-05-23T00:14:22;21.50;63.50
13928;DHT22;7036;50.834;4.718;2023-05-23T00:16:49;21.50;63.50
13928;DHT22;7036;50.834;4.718;2023-05-23T00:19:16;21.50;63.60
13928;DHT22;7036;50.834;4.718;2023-05-23T00:21:45;21.50;63.60
13928;DHT22;7036;50.834;4.718;2023-05-23T00:24:11;21.40;63.50
13928;DHT22;7036;50.834;4.718;2023-05-23T00:26:38;21.50;63.70
13928;DHT22;7036;50.834;4.718;2023-05-23T00:29:05;21.50;63.60
13928;DHT22;7036;50.834;4.718;2023-05-23T00:31:33;21.40;63.50
13928;DHT22;7036;50.834;4.718;2023-05-23T00:34:00;21.40;63.50
13928;DHT22;7036;50.834;4.718;2023-05-23T00:36:27;21.50;63.60
13928;DHT22;7036;50.834;4.718;2023-05-23T00:38:54;21.50;63.60
13928;DHT22;7036;50.834;4.718;2023-05-23T00:41:22;21.40;63.50
13928;DHT22;7036;50.834;4.718;2023-05-23T00:43:49;21.40;63.60
13928;DHT22;7036;50.834;4.718;2023-05-23T00:46:16;21.40;63.50
13928;DHT22;7036;50.834;4.718;2023-05-23T00:48:43;21.50;63.50
13928;DHT22;7036;50.834;4.718;2023-05-23T00:51:10;21.40;63.50
13928;DHT22;7036;50.834;4.718;2023-05-23T00:53:38;21.40;63.50
13928;DHT22;7036;50.834;4.718;2023-05-23T00:56:05;21.40;63.50
13928;DHT22;7036;50.834;4.718;2023-05-23T00:58:32;21.40;63.50
13928;DHT22;7036;50.834;4.718;2023-05-23T01:00:59;21.40;63.60
13928;DHT22;7036;50.834;4.718;2023-05-23T01:03:26;21.40;63.50
13928;DHT22;7036;50.834;4.718;2023-05-23T01:05:54;21.40;63.60
13928;DHT22;7036;50.834;4.718;2023-05-23T01:08:22;21.40;63.70
13928;DHT22;7036;50.834;4.718;2023-05-23T01:10:49;21.40;63.50
13928;DHT22;7036;50.834;4.718;2023-05-23T01:13:30;21.40;63.50
13928;DHT22;7036;50.834;4.718;2023-05-23T01:15:59;21.40;63.50
13928;DHT22;7036;50.834;4.718;2023-05-23T01:20:54;21.40;63.50
13928;DHT22;7036;50.834;4.718;2023-05-23T01:26:52;21.40;63.50
13928;DHT22;7036;50.834;4.718;2023-05-23T01:29:06;21.40;63.50
13928;DHT22;7036;50.834;4.718;2023-05-23T01:31:30;21.40;64.20
13928;DHT22;7036;50.834;4.718;2023-05-23T01:33:57;21.30;63.50
13928;DHT22;7036;50.834;4.718;2023-05-23T01:36:24;21.40;63.50
13928;DHT22;7036;50.834;4.718;2023-05-23T01:38:51;21.40;63.50
13928;DHT22;7036;50.834;4.718;2023-05-23T01:41:18;21.40;63.50
13928;DHT22;7036;50.834;4.718;2023-05-23T01:43:46;21.40;63.50
13928;DHT22;7036;50.834;4.718;2023-05-23T01:46:13;21.40;63.40
13928;DHT22;7036;50.834;4.718;2023-05-23T01:48:42;21.40;63.40
13928;DHT22;7036;50.834;4.718;2023-05-23T01:51:08;21.40;63.40
13928;DHT22;7036;50.834;4.718;2023-05-23T01:53:35;21.40;63.40
13928;DHT22;7036;50.834;4.718;2023-05-23T01:56:03;21.30;63.40
13928;DHT22;7036;50.834;4.718;2023-05-23T01:58:31;21.30;63.50
13928;DHT22;7036;50.834;4.718;2023-05-23T02:00:58;21.30;63.40
13928;DHT22;7036;50.834;4.718;2023-05-23T02:03:25;21.30;63.40
13928;DHT22;7036;50.834;4.718;2023-05-23T02:05:53;21.30;63.60
13928;DHT22;7036;50.834;4.718;2023-05-23T02:08:20;21.30;63.40
13928;DHT22;7036;50.834;4.718;2023-05-23T02:10:48;21.30;63.40
13928;DHT22;7036;50.834;4.718;2023-05-23T02:13:15;21.30;63.40
13928;DHT22;7036;50.834;4.718;2023-05-23T02:15:43;21.30;63.40
13928;DHT22;7036;50.834;4.718;2023-05-23T02:18:10;21.30;63.40
13928;DHT22;7036;50.834;4.718;2023-05-23T02:20:37;21.30;63.40
13928;DHT22;7036;50.834;4.718;2023-05-23T02:23:04;21.30;63.30
13928;DHT22;7036;50.834;4.718;2023-05-23T02:25:31;21.30;63.40
13928;DHT22;7036;50.834;4.718;2023-05-23T02:27:59;21.30;63.40
13928;DHT22;7036;50.834;4.718;2023-05-23T02:30:26;21.30;63.40
13928;DHT22;7036;50.834;4.718;2023-05-23T02:32:53;21.30;63.40
13928;DHT22;7036;50.834;4.718;2023-05-23T02:35:20;21.30;63.40
13928;DHT22;7036;50.834;4.718;2023-05-23T02:37:48;21.30;63.40
13928;DHT22;7036;50.834;4.718;2023-05-23T02:40:15;21.30;63.40
13928;DHT22;7036;50.834;4.718;2023-05-23T02:42:42;21.30;63.30
13928;DHT22;7036;50.834;4.718;2023-05-23T02:45:09;21.30;63.40
13928;DHT22;7036;50.834;4.718;2023-05-23T02:47:37;21.30;63.40
13928;DHT22;7036;50.834;4.718;2023-05-23T02:50:04;21.30;63.40
13928;DHT22;7036;50.834;4.718;2023-05-23T02:52:32;21.30;63.40
13928;DHT22;7036;50.834;4.718;2023-05-23T02:54:59;21.30;63.40
13928;DHT22;7036;50.834;4.718;2023-05-23T02:57:26;21.30;63.40
13928;DHT22;7036;50.834;4.718;2023-05-23T02:59:53;21.30;63.30
13928;DHT22;7036;50.834;4.718;2023-05-23T03:02:20;21.30;64.10
13928;DHT22;7036;50.834;4.718;2023-05-23T03:04:48;21.30;63.40
13928;DHT22;7036;50.834;4.718;2023-05-23T03:07:15;21.30;63.30
13928;DHT22;7036;50.834;4.718;2023-05-23T03:09:42;21.30;63.30
13928;DHT22;7036;50.834;4.718;2023-05-23T03:12:09;21.30;63.40
13928;DHT22;7036;50.834;4.718;2023-05-23T03:14:37;21.30;63.40
13928;DHT22;7036;50.834;4.718;2023-05-23T03:17:04;21.30;63.30
13928;DHT22;7036;50.834;4.718;2023-05-23T03:19:31;21.30;63.30
13928;DHT22;7036;50.834;4.718;2023-05-23T03:21:58;21.20;63.30
13928;DHT22;7036;50.834;4.718;2023-05-23T03:24:25;21.30;63.30
13928;DHT22;7036;50.834;4.718;2023-05-23T03:26:53;21.20;63.20
13928;DHT22;7036;50.834;4.718;2023-05-23T03:29:20;21.20;63.20
13928;DHT22;7036;50.834;4.718;2023-05-23T03:31:48;21.20;63.40
13928;DHT22;7036;50.834;4.718;2023-05-23T03:34:15;21.20;63.20
13928;DHT22;7036;50.834;4.718;2023-05-23T03:36:43;21.20;63.40
13928;DHT22;7036;50.834;4.718;2023-05-23T03:39:10;21.20;63.20
13928;DHT22;7036;50.834;4.718;2023-05-23T03:41:38;21.20;63.30
13928;DHT22;7036;50.834;4.718;2023-05-23T03:44:05;21.20;63.20
13928;DHT22;7036;50.834;4.718;2023-05-23T03:46:33;21.20;63.20
13928;DHT22;7036;50.834;4.718;2023-05-23T03:49:00;21.20;63.30
13928;DHT22;7036;50.834;4.718;2023-05-23T03:51:28;21.20;63.20
13928;DHT22;7036;50.834;4.718;2023-05-23T03:53:56;21.20;63.30
13928;DHT22;7036;50.834;4.718;2023-05-23T03:56:23;21.20;63.20
13928;DHT22;7036;50.834;4.718;2023-05-23T03:58:50;21.20;63.10
13928;DHT22;7036;50.834;4.718;2023-05-23T04:01:19;21.20;63.30
13928;DHT22;7036;50.834;4.718;2023-05-23T04:03:46;21.20;63.10
13928;DHT22;7036;50.834;4.718;2023-05-23T04:06:13;21.20;63.10
13928;DHT22;7036;50.834;4.718;2023-05-23T04:08:41;21.20;63.30
13928;DHT22;7036;50.834;4.718;2023-05-23T04:11:09;21.20;63.30
13928;DHT22;7036;50.834;4.718;2023-05-23T04:13:36;21.20;63.10
13928;DHT22;7036;50.834;4.718;2023-05-23T04:16:03;21.20;63.20
13928;DHT22;7036;50.834;4.718;2023-05-23T04:18:31;21.20;63.10
13928;DHT22;7036;50.834;4.718;2023-05-23T04:20:58;21.20;63.10
13928;DHT22;7036;50.834;4.718;2023-05-23T04:23:26;21.20;63.20
13928;DHT22;7036;50.834;4.718;2023-05-23T04:25:53;21.20;63.10
13928;DHT22;7036;50.834;4.718;2023-05-23T04:28:20;21.10;63.10
13928;DHT22;7036;50.834;4.718;2023-05-23T04:30:47;21.10;63.20
13928;DHT22;7036;50.834;4.718;2023-05-23T04:33:16;21.10;63.20
13928;DHT22;7036;50.834;4.718;2023-05-23T04:35:42;21.10;63.10
13928;DHT22;7036;50.834;4.718;2023-05-23T04:38:10;21.10;63.20
13928;DHT22;7036;50.834;4.718;2023-05-23T04:40:37;21.10;63.00
13928;DHT22;7036;50.834;4.718;2023-05-23T04:43:05;21.20;63.20
13928;DHT22;7036;50.834;4.718;2023-05-23T04:45:33;21.10;63.20
13928;DHT22;7036;50.834;4.718;2023-05-23T04:48:02;21.10;63.20
13928;DHT22;7036;50.834;4.718;2023-05-23T04:50:29;21.10;63.10
13928;DHT22;7036;50.834;4.718;2023-05-23T04:52:56;21.10;63.10
13928;DHT22;7036;50.834;4.718;2023-05-23T04:55:24;21.10;63.10
13928;DHT22;7036;50.834;4.718;2023-05-23T04:57:52;21.10;63.00
13928;DHT22;7036;50.834;4.718;2023-05-23T05:00:19;21.10;63.00
13928;DHT22;7036;50.834;4.718;2023-05-23T05:02:47;21.10;63.10
13928;DHT22;7036;50.834;4.718;2023-05-23T05:05:15;21.10;63.10
13928;DHT22;7036;50.834;4.718;2023-05-23T05:07:43;21.10;63.10
13928;DHT22;7036;50.834;4.718;2023-05-23T05:10:11;21.10;63.10
13928;DHT22;7036;50.834;4.718;2023-05-23T05:12:39;21.10;63.10
13928;DHT22;7036;50.834;4.718;2023-05-23T05:15:07;21.10;63.10
13928;DHT22;7036;50.834;4.718;2023-05-23T05:17:33;21.10;63.00
13928;DHT22;7036;50.834;4.718;2023-05-23T05:20:02;21.10;63.10
13928;DHT22;7036;50.834;4.718;2023-05-23T05:22:29;21.10;63.10
13928;DHT22;7036;50.834;4.718;2023-05-23T05:24:57;21.10;63.10
13928;DHT22;7036;50.834;4.718;2023-05-23T05:27:24;21.10;63.00
13928;DHT22;7036;50.834;4.718;2023-05-23T05:29:53;21.10;63.10
13928;DHT22;7036;50.834;4.718;2023-05-23T05:32:20;21.10;62.90
13928;DHT22;7036;50.834;4.718;2023-05-23T05:34:47;21.10;63.00
13928;DHT22;7036;50.834;4.718;2023-05-23T05:37:14;21.10;62.90
13928;DHT22;7036;50.834;4.718;2023-05-23T05:39:42;21.10;63.00
13928;DHT22;7036;50.834;4.718;2023-05-23T05:42:10;21.10;63.10
13928;DHT22;7036;50.834;4.718;2023-05-23T05:44:38;21.10;63.10
13928;DHT22;7036;50.834;4.718;2023-05-23T05:47:05;21.10;63.00
13928;DHT22;7036;50.834;4.718;2023-05-23T05:49:32;21.10;63.00
13928;DHT22;7036;50.834;4.718;2023-05-23T05:52:00;21.10;63.10
13928;DHT22;7036;50.834;4.718;2023-05-23T05:54:28;21.10;63.00
13928;DHT22;7036;50.834;4.718;2023-05-23T05:56:55;21.10;63.00
13928;DHT22;7036;50.834;4.718;2023-05-23T05:59:23;21.10;63.10
13928;DHT22;7036;50.834;4.718;2023-05-23T06:01:52;21.10;63.10
13928;DHT22;7036;50.834;4.718;2023-05-23T06:04:19;21.10;63.00
13928;DHT22;7036;50.834;4.718;2023-05-23T06:06:47;21.10;62.90
13928;DHT22;7036;50.834;4.718;2023-05-23T06:09:13;21.10;62.90
13928;DHT22;7036;50.834;4.718;2023-05-23T06:11:41;21.10;63.10
13928;DHT22;7036;50.834;4.718;2023-05-23T06:14:09;21.10;63.10
13928;DHT22;7036;50.834;4.718;2023-05-23T06:16:37;21.10;63.10
13928;DHT22;7036;50.834;4.718;2023-05-23T06:19:05;21.10;63.10
13928;DHT22;7036;50.834;4.718;2023-05-23T06:21:33;21.10;63.10
13928;DHT22;7036;50.834;4.718;2023-05-23T06:24:01;21.10;63.20
13928;DHT22;7036;50.834;4.718;2023-05-23T06:26:29;21.00;63.10
13928;DHT22;7036;50.834;4.718;2023-05-23T06:28:57;21.10;63.10
13928;DHT22;7036;50.834;4.718;2023-05-23T06:31:24;21.10;62.90
13928;DHT22;7036;50.834;4.718;2023-05-23T06:33:52;21.10;63.00
13928;DHT22;7036;50.834;4.718;2023-05-23T06:36:19;21.10;62.90
13928;DHT22;7036;50.834;4.718;2023-05-23T06:38:47;21.00;63.00
13928;DHT22;7036;50.834;4.718;2023-05-23T06:41:15;21.10;63.00
13928;DHT22;7036;50.834;4.718;2023-05-23T06:43:43;21.10;63.00
13928;DHT22;7036;50.834;4.718;2023-05-23T06:46:11;21.10;63.00
13928;DHT22;7036;50.834;4.718;2023-05-23T06:48:39;21.10;62.90
13928;DHT22;7036;50.834;4.718;2023-05-23T06:51:06;21.00;62.70
13928;DHT22;7036;50.834;4.718;2023-05-23T06:53:33;21.10;62.70
13928;DHT22;7036;50.834;4.718;2023-05-23T06:56:01;21.10;62.80
13928;DHT22;7036;50.834;4.718;2023-05-23T06:58:29;21.10;63.40
13928;DHT22;7036;50.834;4.718;2023-05-23T07:00:57;21.10;62.50
13928;DHT22;7036;50.834;4.718;2023-05-23T07:03:25;21.00;62.30
13928;DHT22;7036;50.834;4.718;2023-05-23T07:05:53;21.00;62.20
13928;DHT22;7036;50.834;4.718;2023-05-23T07:08:20;20.90;62.00
13928;DHT22;7036;50.834;4.718;2023-05-23T07:10:47;20.90;62.00
13928;DHT22;7036;50.834;4.718;2023-05-23T07:13:15;20.90;62.10
13928;DHT22;7036;50.834;4.718;2023-05-23T07:15:43;20.90;61.90
13928;DHT22;7036;50.834;4.718;2023-05-23T07:18:11;20.90;61.80
13928;DHT22;7036;50.834;4.718;2023-05-23T07:20:38;20.90;61.70
13928;DHT22;7036;50.834;4.718;2023-05-23T07:23:06;20.90;61.40
13928;DHT22;7036;50.834;4.718;2023-05-23T07:25:34;20.80;61.20
13928;DHT22;7036;50.834;4.718;2023-05-23T07:28:02;20.80;62.00
13928;DHT22;7036;50.834;4.718;2023-05-23T07:30:30;20.90;62.10
13928;DHT22;7036;50.834;4.718;2023-05-23T07:32:57;20.90;61.20
13928;DHT22;7036;50.834;4.718;2023-05-23T07:35:24;20.90;61.40
13928;DHT22;7036;50.834;4.718;2023-05-23T07:37:52;20.90;61.70
13928;DHT22;7036;50.834;4.718;2023-05-23T07:40:19;20.90;61.50
13928;DHT22;7036;50.834;4.718;2023-05-23T07:42:46;21.00;61.60
13928;DHT22;7036;50.834;4.718;2023-05-23T07:45:14;21.00;61.60
13928;DHT22;7036;50.834;4.718;2023-05-23T07:47:41;21.10;61.80
13928;DHT22;7036;50.834;4.718;2023-05-23T07:50:09;21.10;61.80
13928;DHT22;7036;50.834;4.718;2023-05-23T07:52:37;21.10;61.80
13928;DHT22;7036;50.834;4.718;2023-05-23T07:55:06;21.10;61.80
13928;DHT22;7036;50.834;4.718;2023-05-23T07:57:33;21.10;61.60
13928;DHT22;7036;50.834;4.718;2023-05-23T08:00:00;21.10;61.70
13928;DHT22;7036;50.834;4.718;2023-05-23T08:02:28;21.10;61.80
13928;DHT22;7036;50.834;4.718;2023-05-23T08:04:56;21.10;61.90
13928;DHT22;7036;50.834;4.718;2023-05-23T08:07:24;21.10;61.80
13928;DHT22;7036;50.834;4.718;2023-05-23T08:09:52;21.10;61.70
13928;DHT22;7036;50.834;4.718;2023-05-23T08:12:19;21.20;61.50
13928;DHT22;7036;50.834;4.718;2023-05-23T08:14:46;21.10;60.40
13928;DHT22;7036;50.834;4.718;2023-05-23T08:17:13;21.10;60.30
13928;DHT22;7036;50.834;4.718;2023-05-23T08:19:41;21.10;59.60
13928;DHT22;7036;50.834;4.718;2023-05-23T08:22:08;21.10;59.70
13928;DHT22;7036;50.834;4.718;2023-05-23T08:24:36;21.10;60.20
13928;DHT22;7036;50.834;4.718;2023-05-23T08:27:03;21.00;60.00
13928;DHT22;7036;50.834;4.718;2023-05-23T08:29:31;21.10;60.30
13928;DHT22;7036;50.834;4.718;2023-05-23T08:31:59;21.10;60.40
13928;DHT22;7036;50.834;4.718;2023-05-23T08:34:26;21.00;60.30
13928;DHT22;7036;50.834;4.718;2023-05-23T08:36:53;21.10;60.40
13928;DHT22;7036;50.834;4.718;2023-05-23T08:39:20;21.10;60.40
13928;DHT22;7036;50.834;4.718;2023-05-23T08:41:50;21.10;60.60
13928;DHT22;7036;50.834;4.718;2023-05-23T08:44:16;21.10;60.60
13928;DHT22;7036;50.834;4.718;2023-05-23T08:46:44;21.10;60.50
13928;DHT22;7036;50.834;4.718;2023-05-23T08:49:15;21.10;60.70
13928;DHT22;7036;50.834;4.718;2023-05-23T08:51:41;21.10;60.60
13928;DHT22;7036;50.834;4.718;2023-05-23T08:54:08;21.20;60.60
13928;DHT22;7036;50.834;4.718;2023-05-23T08:56:36;21.20;60.80
13928;DHT22;7036;50.834;4.718;2023-05-23T08:59:03;21.20;60.70
13928;DHT22;7036;50.834;4.718;2023-05-23T09:01:31;21.20;60.80
13928;DHT22;7036;50.834;4.718;2023-05-23T09:03:59;21.20;60.80
13928;DHT22;7036;50.834;4.718;2023-05-23T09:06:27;21.20;60.70
13928;DHT22;7036;50.834;4.718;2023-05-23T09:08:55;21.20;60.70
13928;DHT22;7036;50.834;4.718;2023-05-23T09:11:22;21.20;60.60
13928;DHT22;7036;50.834;4.718;2023-05-23T09:13:49;21.20;60.60
13928;DHT22;7036;50.834;4.718;2023-05-23T09:16:17;21.20;60.50
13928;DHT22;7036;50.834;4.718;2023-05-23T09:18:44;21.20;60.40
13928;DHT22;7036;50.834;4.718;2023-05-23T09:21:12;21.20;60.50
13928;DHT22;7036;50.834;4.718;2023-05-23T09:23:40;21.30;60.60
13928;DHT22;7036;50.834;4.718;2023-05-23T09:26:11;21.20;60.50
13928;DHT22;7036;50.834;4.718;2023-05-23T09:28:41;21.20;60.60
13928;DHT22;7036;50.834;4.718;2023-05-23T09:31:08;21.20;60.40
13928;DHT22;7036;50.834;4.718;2023-05-23T09:33:42;21.30;60.60
13928;DHT22;7036;50.834;4.718;2023-05-23T09:36:08;21.30;60.40
13928;DHT22;7036;50.834;4.718;2023-05-23T09:38:37;21.30;61.10
13928;DHT22;7036;50.834;4.718;2023-05-23T09:41:04;21.30;60.40
13928;DHT22;7036;50.834;4.718;2023-05-23T09:43:33;21.30;60.60
13928;DHT22;7036;50.834;4.718;2023-05-23T09:46:09;21.30;60.40
13928;DHT22;7036;50.834;4.718;2023-05-23T09:48:35;21.30;60.40
13928;DHT22;7036;50.834;4.718;2023-05-23T09:51:04;21.30;60.50
13928;DHT22;7036;50.834;4.718;2023-05-23T09:53:31;21.30;60.30
13928;DHT22;7036;50.834;4.718;2023-05-23T09:55:59;21.30;60.40
13928;DHT22;7036;50.834;4.718;2023-05-23T09:58:27;21.30;60.50
13928;DHT22;7036;50.834;4.718;2023-05-23T10:00:58;21.40;60.40
13928;DHT22;7036;50.834;4.718;2023-05-23T10:04:24;21.40;60.30
13928;DHT22;7036;50.834;4.718;2023-05-23T10:06:06;21.40;60.30
13928;DHT22;7036;50.834;4.718;2023-05-23T10:08:32;21.40;60.20
13928;DHT22;7036;50.834;4.718;2023-05-23T10:13:44;21.40;60.90
13928;DHT22;7036;50.834;4.718;2023-05-23T10:16:25;21.40;60.20
13928;DHT22;7036;50.834;4.718;2023-05-23T10:18:51;21.40;60.20
13928;DHT22;7036;50.834;4.718;2023-05-23T10:21:23;21.40;60.30
13928;DHT22;7036;50.834;4.718;2023-05-23T10:23:47;21.40;60.10
13928;DHT22;7036;50.834;4.718;2023-05-23T10:26:15;21.40;60.20
13928;DHT22;7036;50.834;4.718;2023-05-23T10:28:43;21.40;60.20
13928;DHT22;7036;50.834;4.718;2023-05-23T10:31:11;21.40;60.20
13928;DHT22;7036;50.834;4.718;2023-05-23T10:33:40;21.40;60.20
13928;DHT22;7036;50.834;4.718;2023-05-23T10:36:13;21.40;60.10
13928;DHT22;7036;50.834;4.718;2023-05-23T10:38:57;21.40;60.20
13928;DHT22;7036;50.834;4.718;2023-05-23T10:41:33;21.40;60.10
13928;DHT22;7036;50.834;4.718;2023-05-23T10:46:54;21.40;60.00
13928;DHT22;7036;50.834;4.718;2023-05-23T10:49:20;21.40;60.10
13928;DHT22;7036;50.834;4.718;2023-05-23T10:51:50;21.40;60.10
13928;DHT22;7036;50.834;4.718;2023-05-23T10:54:17;21.50;60.10
13928;DHT22;7036;50.834;4.718;2023-05-23T10:56:44;21.50;60.20
13928;DHT22;7036;50.834;4.718;2023-05-23T10:59:18;21.40;60.20
13928;DHT22;7036;50.834;4.718;2023-05-23T11:01:44;21.40;60.10
13928;DHT22;7036;50.834;4.718;2023-05-23T11:04:12;21.50;60.20
13928;DHT22;7036;50.834;4.718;2023-05-23T11:06:41;21.50;60.10
13928;DHT22;7036;50.834;4.718;2023-05-23T11:09:17;21.40;60.00
13928;DHT22;7036;50.834;4.718;2023-05-23T11:11:51;21.50;60.10
13928;DHT22;7036;50.834;4.718;2023-05-23T11:14:18;21.40;60.20
13928;DHT22;7036;50.834;4.718;2023-05-23T11:16:45;21.50;60.10
13928;DHT22;7036;50.834;4.718;2023-05-23T11:21:49;21.40;59.10
13928;DHT22;7036;50.834;4.718;2023-05-23T11:24:13;21.30;58.30
13928;DHT22;7036;50.834;4.718;2023-05-23T11:26:51;21.30;58.70
13928;DHT22;7036;50.834;4.718;2023-05-23T11:29:09;21.30;58.50
13928;DHT22;7036;50.834;4.718;2023-05-23T11:31:37;21.30;58.40
13928;DHT22;7036;50.834;4.718;2023-05-23T11:34:05;21.40;58.30
13928;DHT22;7036;50.834;4.718;2023-05-23T11:36:33;21.40;58.20
13928;DHT22;7036;50.834;4.718;2023-05-23T11:39:03;21.40;57.90
13928;DHT22;7036;50.834;4.718;2023-05-23T11:41:30;21.40;57.80
13928;DHT22;7036;50.834;4.718;2023-05-23T11:43:58;21.40;57.80
13928;DHT22;7036;50.834;4.718;2023-05-23T11:46:26;21.40;57.90
13928;DHT22;7036;50.834;4.718;2023-05-23T11:48:54;21.40;57.30
13928;DHT22;7036;50.834;4.718;2023-05-23T11:51:22;21.30;56.80
13928;DHT22;7036;50.834;4.718;2023-05-23T11:53:49;21.30;56.70
13928;DHT22;7036;50.834;4.718;2023-05-23T11:56:18;21.30;56.50
13928;DHT22;7036;50.834;4.718;2023-05-23T11:58:45;21.30;56.40
13928;DHT22;7036;50.834;4.718;2023-05-23T12:01:12;21.30;56.30
13928;DHT22;7036;50.834;4.718;2023-05-23T12:03:48;21.20;55.90
13928;DHT22;7036;50.834;4.718;2023-05-23T12:06:15;21.20;55.50
13928;DHT22;7036;50.834;4.718;2023-05-23T12:08:42;21.20;55.10
13928;DHT22;7036;50.834;4.718;2023-05-23T12:11:10;21.10;54.20
13928;DHT22;7036;50.834;4.718;2023-05-23T12:13:39;21.10;54.20
13928;DHT22;7036;50.834;4.718;2023-05-23T12:16:04;21.10;54.40
13928;DHT22;7036;50.834;4.718;2023-05-23T12:18:32;21.10;53.80
13928;DHT22;7036;50.834;4.718;2023-05-23T12:21:03;21.00;53.20
13928;DHT22;7036;50.834;4.718;2023-05-23T12:23:30;21.00;52.90
13928;DHT22;7036;50.834;4.718;2023-05-23T12:25:57;21.00;53.20
13928;DHT22;7036;50.834;4.718;2023-05-23T12:28:34;21.00;52.50
13928;DHT22;7036;50.834;4.718;2023-05-23T12:31:21;21.00;53.20
13928;DHT22;7036;50.834;4.718;2023-05-23T12:33:27;21.10;53.40
13928;DHT22;7036;50.834;4.718;2023-05-23T12:35:54;21.10;53.50
13928;DHT22;7036;50.834;4.718;2023-05-23T12:38:21;21.10;53.70
13928;DHT22;7036;50.834;4.718;2023-05-23T12:41:06;21.20;54.20
13928;DHT22;7036;50.834;4.718;2023-05-23T12:43:18;21.20;54.20
13928;DHT22;7036;50.834;4.718;2023-05-23T12:45:45;21.20;54.10
13928;DHT22;7036;50.834;4.718;2023-05-23T12:48:12;21.20;54.30
13928;DHT22;7036;50.834;4.718;2023-05-23T12:50:39;21.20;54.40
13928;DHT22;7036;50.834;4.718;2023-05-23T12:53:09;21.30;54.70
13928;DHT22;7036;50.834;4.718;2023-05-23T12:55:36;21.30;54.60
13928;DHT22;7036;50.834;4.718;2023-05-23T12:58:03;21.30;54.60
13928;DHT22;7036;50.834;4.718;2023-05-23T13:00:30;21.30;54.60
13928;DHT22;7036;50.834;4.718;2023-05-23T13:02:58;21.30;54.90
13928;DHT22;7036;50.834;4.718;2023-05-23T13:05:26;21.40;55.20
13928;DHT22;7036;50.834;4.718;2023-05-23T13:07:53;21.40;55.10
13928;DHT22;7036;50.834;4.718;2023-05-23T13:10:21;21.40;55.40
13928;DHT22;7036;50.834;4.718;2023-05-23T13:12:49;21.40;55.60
13928;DHT22;7036;50.834;4.718;2023-05-23T13:15:16;21.40;56.10
13928;DHT22;7036;50.834;4.718;2023-05-23T13:17:43;21.40;55.60
13928;DHT22;7036;50.834;4.718;2023-05-23T13:20:10;21.40;55.60
13928;DHT22;7036;50.834;4.718;2023-05-23T13:22:39;21.40;56.00
13928;DHT22;7036;50.834;4.718;2023-05-23T13:25:07;21.50;56.10
13928;DHT22;7036;50.834;4.718;2023-05-23T13:27:34;21.40;56.00
13928;DHT22;7036;50.834;4.718;2023-05-23T13:30:01;21.50;56.10
13928;DHT22;7036;50.834;4.718;2023-05-23T13:32:29;21.50;55.70
13928;DHT22;7036;50.834;4.718;2023-05-23T13:34:56;21.40;55.50
13928;DHT22;7036;50.834;4.718;2023-05-23T13:37:23;21.50;55.60
13928;DHT22;7036;50.834;4.718;2023-05-23T13:39:50;21.50;55.70
13928;DHT22;7036;50.834;4.718;2023-05-23T13:42:19;21.50;56.00
13928;DHT22;7036;50.834;4.718;2023-05-23T13:44:47;21.50;56.70
13928;DHT22;7036;50.834;4.718;2023-05-23T13:47:16;21.50;55.90
13928;DHT22;7036;50.834;4.718;2023-05-23T13:49:43;21.50;56.00
13928;DHT22;7036;50.834;4.718;2023-05-23T13:52:10;21.50;56.00
13928;DHT22;7036;50.834;4.718;2023-05-23T13:54:38;21.50;56.10
13928;DHT22;7036;50.834;4.718;2023-05-23T13:57:05;21.50;56.00
13928;DHT22;7036;50.834;4.718;2023-05-23T13:59:33;21.50;56.20
13928;DHT22;7036;50.834;4.718;2023-05-23T14:02:01;21.60;56.40
13928;DHT22;7036;50.834;4.718;2023-05-23T14:04:29;21.60;56.40
13928;DHT22;7036;50.834;4.718;2023-05-23T14:06:56;21.60;56.30
13928;DHT22;7036;50.834;4.718;2023-05-23T14:09:24;21.60;57.10
13928;DHT22;7036;50.834;4.718;2023-05-23T14:11:52;21.60;56.50
13928;DHT22;7036;50.834;4.718;2023-05-23T14:14:19;21.60;56.40
13928;DHT22;7036;50.834;4.718;2023-05-23T14:16:48;21.60;56.40
13928;DHT22;7036;50.834;4.718;2023-05-23T14:19:14;21.60;56.50
13928;DHT22;7036;50.834;4.718;2023-05-23T14:21:42;21.60;56.60
13928;DHT22;7036;50.834;4.718;2023-05-23T14:24:10;21.60;56.50
13928;DHT22;7036;50.834;4.718;2023-05-23T14:26:37;21.60;56.50
13928;DHT22;7036;50.834;4.718;2023-05-23T14:29:05;21.70;56.50
13928;DHT22;7036;50.834;4.718;2023-05-23T14:31:32;21.70;56.60
13928;DHT22;7036;50.834;4.718;2023-05-23T14:33:59;21.70;56.60
13928;DHT22;7036;50.834;4.718;2023-05-23T14:36:27;21.70;56.80
13928;DHT22;7036;50.834;4.718;2023-05-23T14:38:56;21.70;56.60
13928;DHT22;7036;50.834;4.718;2023-05-23T14:41:23;21.70;56.60
13928;DHT22;7036;50.834;4.718;2023-05-23T14:43:50;21.70;56.70
13928;DHT22;7036;50.834;4.718;2023-05-23T14:46:19;21.70;56.60
13928;DHT22;7036;50.834;4.718;2023-05-23T14:48:45;21.70;56.70
13928;DHT22;7036;50.834;4.718;2023-05-23T14:51:13;21.80;56.90
13928;DHT22;7036;50.834;4.718;2023-05-23T14:53:41;21.70;56.70
13928;DHT22;7036;50.834;4.718;2023-05-23T14:56:09;21.70;56.80
13928;DHT22;7036;50.834;4.718;2023-05-23T14:58:37;21.80;56.90
13928;DHT22;7036;50.834;4.718;2023-05-23T15:01:04;21.80;56.80
13928;DHT22;7036;50.834;4.718;2023-05-23T15:03:32;21.80;56.90
13928;DHT22;7036;50.834;4.718;2023-05-23T15:05:59;21.80;56.80
13928;DHT22;7036;50.834;4.718;2023-05-23T15:08:27;21.90;56.90
13928;DHT22;7036;50.834;4.718;2023-05-23T15:10:55;21.90;56.90
13928;DHT22;7036;50.834;4.718;2023-05-23T15:13:23;21.90;56.80
13928;DHT22;7036;50.834;4.718;2023-05-23T15:15:51;21.90;56.80
13928;DHT22;7036;50.834;4.718;2023-05-23T15:18:18;21.90;56.80
13928;DHT22;7036;50.834;4.718;2023-05-23T15:20:45;22.00;56.80
13928;DHT22;7036;50.834;4.718;2023-05-23T15:23:13;22.00;56.90
13928;DHT22;7036;50.834;4.718;2023-05-23T15:25:41;22.00;56.80
13928;DHT22;7036;50.834;4.718;2023-05-23T15:28:09;22.00;56.80
13928;DHT22;7036;50.834;4.718;2023-05-23T15:30:38;22.00;56.80
13928;DHT22;7036;50.834;4.718;2023-05-23T15:33:05;22.00;56.70
13928;DHT22;7036;50.834;4.718;2023-05-23T15:35:32;22.00;56.70
13928;DHT22;7036;50.834;4.718;2023-05-23T15:37:59;22.00;56.70
13928;DHT22;7036;50.834;4.718;2023-05-23T15:40:26;22.00;56.70
13928;DHT22;7036;50.834;4.718;2023-05-23T15:42:56;22.00;55.10
13928;DHT22;7036;50.834;4.718;2023-05-23T15:45:23;22.00;55.00
13928;DHT22;7036;50.834;4.718;2023-05-23T15:47:51;21.90;53.40
13928;DHT22;7036;50.834;4.718;2023-05-23T15:50:18;21.90;53.30
13928;DHT22;7036;50.834;4.718;2023-05-23T15:52:45;21.80;53.20
13928;DHT22;7036;50.834;4.718;2023-05-23T15:55:12;21.80;52.70
13928;DHT22;7036;50.834;4.718;2023-05-23T15:57:40;21.80;52.30
13928;DHT22;7036;50.834;4.718;2023-05-23T16:00:08;21.70;52.00
13928;DHT22;7036;50.834;4.718;2023-05-23T16:02:36;21.70;51.80